createdAt,value
2019-02-17T00:01:06.736Z,4.70
2019-02-17T00:04:12.533Z,4.83
2019-02-17T00:07:18.380Z,5.05
2019-02-17T00:10:24.308Z,5.03
2019-02-17T00:13:30.199Z,4.65
2019-02-17T00:16:36.016Z,5.03
2019-02-17T00:19:42.019Z,5.17
2019-02-17T00:22:47.872Z,5.58
2019-02-17T00:25:53.892Z,5.62
2019-02-17T00:28:59.968Z,5.55
2019-02-17T00:32:05.816Z,5.72
2019-02-17T00:35:11.683Z,5.85
2019-02-17T00:38:17.478Z,5.42
2019-02-17T00:41:23.391Z,5.60
2019-02-17T00:44:29.186Z,5.60
2019-02-17T00:47:34.999Z,5.45
2019-02-17T00:50:40.968Z,5.47
2019-02-17T00:53:46.860Z,5.58
2019-02-17T00:56:52.673Z,5.90
2019-02-17T00:59:58.463Z,5.83
2019-02-17T01:03:04.688Z,5.83
2019-02-17T01:06:10.456Z,6.22
2019-02-17T01:09:16.102Z,5.85
2019-02-17T01:12:21.871Z,5.40
2019-02-17T01:15:27.724Z,5.47
2019-02-17T01:18:33.488Z,5.22
2019-02-17T01:21:39.336Z,5.30
2019-02-17T01:24:45.273Z,5.70
2019-02-17T01:27:51.156Z,5.78
2019-02-17T01:30:57.116Z,5.10
2019-02-17T01:34:10.061Z,5.03
2019-02-17T01:37:15.888Z,5.83
2019-02-17T01:40:21.652Z,5.22
2019-02-17T01:43:27.508Z,5.40
2019-02-17T01:46:33.263Z,5.55
2019-02-17T01:49:39.224Z,5.22
2019-02-17T01:52:44.876Z,5.37
2019-02-17T01:55:50.520Z,5.97
2019-02-17T01:59:15.423Z,5.58
2019-02-17T02:02:21.135Z,5.60
2019-02-17T02:05:26.780Z,6.05
2019-02-17T02:08:32.647Z,6.25
2019-02-17T02:11:38.408Z,6.03
2019-02-17T02:14:44.201Z,5.95
2019-02-17T02:17:50.014Z,6.10
2019-02-17T02:20:55.660Z,6.08
2019-02-17T02:24:01.420Z,5.83
2019-02-17T02:27:07.183Z,6.30
2019-02-17T02:30:13.697Z,6.55
2019-02-17T02:33:19.509Z,6.50
2019-02-17T02:36:26.400Z,7.03
2019-02-17T02:39:32.174Z,6.17
2019-02-17T02:42:38.107Z,7.03
2019-02-17T02:45:44.925Z,6.15
2019-02-17T02:48:50.729Z,6.72
2019-02-17T02:51:56.384Z,6.50
2019-02-17T02:55:02.077Z,6.25
2019-02-17T02:58:07.900Z,6.75
2019-02-17T03:01:14.059Z,6.55
2019-02-17T03:04:19.928Z,6.50
2019-02-17T03:07:25.841Z,6.80
2019-02-17T03:10:31.980Z,6.78
2019-02-17T03:13:37.700Z,6.40
2019-02-17T03:16:43.348Z,5.58
2019-02-17T03:19:49.247Z,6.75
2019-02-17T03:22:55.100Z,6.22
2019-02-17T03:26:00.992Z,6.15
2019-02-17T03:29:06.784Z,7.05
2019-02-17T03:32:12.650Z,6.22
2019-02-17T03:35:18.429Z,6.53
2019-02-17T03:38:24.246Z,6.42
2019-02-17T03:41:29.945Z,6.58
2019-02-17T03:44:35.757Z,6.65
2019-02-17T03:47:41.527Z,6.70
2019-02-17T03:50:47.418Z,6.42
2019-02-17T03:53:53.336Z,6.20
2019-02-17T03:56:59.131Z,6.12
2019-02-17T04:00:16.022Z,6.92
2019-02-17T04:03:12.755Z,6.20
2019-02-17T04:06:18.435Z,6.67
2019-02-17T04:09:25.392Z,6.33
2019-02-17T04:12:31.180Z,6.55
2019-02-17T04:15:37.112Z,6.95
2019-02-17T04:18:43.004Z,6.70
2019-02-17T04:21:48.828Z,6.80
2019-02-17T04:24:54.708Z,6.80
2019-02-17T04:28:00.460Z,6.35
2019-02-17T04:31:06.445Z,6.85
2019-02-17T04:34:12.398Z,6.72
2019-02-17T04:37:18.313Z,7.10
2019-02-17T04:40:24.069Z,6.85
2019-02-17T04:43:29.928Z,6.45
2019-02-17T04:46:35.577Z,7.00
2019-02-17T04:49:41.329Z,6.50
2019-02-17T04:52:47.190Z,6.50
2019-02-17T04:55:52.945Z,6.87
2019-02-17T04:58:58.692Z,6.12
2019-02-17T05:02:04.352Z,6.90
2019-02-17T05:05:10.208Z,6.53
2019-02-17T05:08:15.961Z,7.05
2019-02-17T05:11:22.536Z,7.10
2019-02-17T05:14:28.299Z,6.92
2019-02-17T05:17:34.152Z,6.50
2019-02-17T05:20:39.907Z,6.97
2019-02-17T05:23:45.699Z,6.90
2019-02-17T05:26:51.621Z,6.45
2019-02-17T05:29:57.380Z,7.03
2019-02-17T05:33:03.125Z,7.40
2019-02-17T05:36:08.782Z,6.95
2019-02-17T05:39:14.583Z,6.90
2019-02-17T05:42:20.498Z,7.30
2019-02-17T05:45:26.360Z,6.73
2019-02-17T05:48:32.216Z,7.22
2019-02-17T05:51:38.076Z,7.30
2019-02-17T05:54:43.932Z,6.62
2019-02-17T05:57:49.791Z,7.12
2019-02-17T06:01:03.355Z,7.08
2019-02-17T06:04:03.084Z,6.83
2019-02-17T06:07:08.795Z,6.60
2019-02-17T06:10:14.595Z,6.15
2019-02-17T06:13:20.500Z,6.83
2019-02-17T06:16:26.372Z,5.97
2019-02-17T06:19:32.157Z,6.10
2019-02-17T06:22:38.079Z,6.20
2019-02-17T06:25:43.881Z,5.80
2019-02-17T06:28:49.794Z,5.70
2019-02-17T06:31:55.551Z,5.15
2019-02-17T06:35:01.338Z,5.08
2019-02-17T06:38:07.052Z,5.17
2019-02-17T06:41:12.825Z,5.35
2019-02-17T06:44:18.667Z,5.00
2019-02-17T06:47:32.099Z,5.30
2019-02-17T06:50:37.908Z,5.78
2019-02-17T06:53:43.730Z,5.40
2019-02-17T06:56:53.280Z,5.53
2019-02-17T07:00:19.737Z,5.40
2019-02-17T07:03:25.560Z,5.10
2019-02-17T07:06:34.628Z,5.15
2019-02-17T07:09:40.448Z,5.30
2019-02-17T07:12:46.211Z,5.08
2019-02-17T07:15:51.999Z,5.00
2019-02-17T07:18:57.924Z,5.45
2019-02-17T07:22:03.820Z,5.20
2019-02-17T07:25:09.775Z,5.42
2019-02-17T07:28:15.704Z,5.40
2019-02-17T07:31:22.660Z,5.10
2019-02-17T07:34:28.532Z,5.55
2019-02-17T07:37:34.227Z,5.30
2019-02-17T07:40:40.096Z,5.08
2019-02-17T07:43:45.904Z,5.12
2019-02-17T07:46:51.704Z,5.40
2019-02-17T07:49:57.531Z,5.45
2019-02-17T07:53:03.419Z,5.35
2019-02-17T07:56:09.344Z,5.37
2019-02-17T07:59:15.376Z,5.55
2019-02-17T08:02:21.211Z,5.28
2019-02-17T08:05:26.860Z,6.10
2019-02-17T08:08:32.715Z,6.00
2019-02-17T08:11:38.480Z,5.70
2019-02-17T08:14:44.124Z,5.80
2019-02-17T08:17:49.879Z,6.05
2019-02-17T08:20:55.679Z,6.03
2019-02-17T08:24:01.491Z,6.03
2019-02-17T08:27:07.259Z,6.50
2019-02-17T08:30:13.728Z,6.10
2019-02-17T08:33:19.584Z,6.37
2019-02-17T08:36:25.264Z,6.22
2019-02-17T08:39:31.196Z,6.00
2019-02-17T08:42:36.844Z,6.05
2019-02-17T08:45:42.604Z,5.58
2019-02-17T08:48:48.364Z,5.90
2019-02-17T08:51:54.113Z,6.03
2019-02-17T08:54:59.756Z,5.83
2019-02-17T08:58:05.521Z,6.03
2019-02-17T09:01:11.165Z,5.67
2019-02-17T09:04:16.920Z,5.85
2019-02-17T09:07:22.788Z,5.90
2019-02-17T09:10:28.535Z,5.78
2019-02-17T09:13:35.523Z,5.42
2019-02-17T09:16:41.316Z,5.40
2019-02-17T09:19:47.145Z,5.50
2019-02-17T09:22:52.683Z,4.95
2019-02-17T09:25:58.442Z,5.30
2019-02-17T09:29:04.200Z,5.10
2019-02-17T09:32:16.291Z,5.20
2019-02-17T09:35:17.547Z,5.00
2019-02-17T09:38:23.200Z,4.92
2019-02-17T09:41:28.991Z,4.70
2019-02-17T09:44:34.820Z,4.80
2019-02-17T09:47:40.604Z,4.85
2019-02-17T09:50:46.420Z,4.92
2019-02-17T09:53:52.187Z,4.53
2019-02-17T09:56:57.860Z,4.72
2019-02-17T10:00:03.799Z,4.83
2019-02-17T10:03:09.796Z,4.60
2019-02-17T10:06:15.508Z,4.87
2019-02-17T10:09:21.270Z,4.37
2019-02-17T10:12:27.063Z,4.28
2019-02-17T10:15:32.764Z,4.35
2019-02-17T10:18:38.659Z,4.22
2019-02-17T10:21:44.594Z,4.40
2019-02-17T10:24:50.455Z,4.72
2019-02-17T10:27:56.350Z,4.50
2019-02-17T10:31:02.163Z,4.85
2019-02-17T10:34:07.816Z,4.70
2019-02-17T10:37:13.621Z,4.05
2019-02-17T10:40:19.743Z,4.03
2019-02-17T10:43:25.636Z,3.95
2019-02-17T10:46:31.651Z,4.05
2019-02-17T10:49:37.516Z,4.60
2019-02-17T10:52:43.298Z,3.80
2019-02-17T10:55:49.116Z,3.83
2019-02-17T10:58:54.921Z,3.80
2019-02-17T11:02:00.735Z,4.22
2019-02-17T11:05:06.705Z,4.10
2019-02-17T11:08:12.492Z,4.28
2019-02-17T11:11:18.316Z,3.87
2019-02-17T11:14:24.099Z,3.42
2019-02-17T11:17:29.916Z,3.98
2019-02-17T11:20:35.576Z,3.80
2019-02-17T11:23:41.375Z,3.92
2019-02-17T11:26:47.194Z,3.65
2019-02-17T11:29:53.089Z,3.50
2019-02-17T11:32:59.010Z,3.90
2019-02-17T11:36:04.656Z,3.62
2019-02-17T11:39:17.932Z,3.60
2019-02-17T11:42:23.851Z,3.65
2019-02-17T11:45:30.266Z,3.30
2019-02-17T11:48:36.185Z,3.60
2019-02-17T11:51:41.935Z,3.20
2019-02-17T11:54:48.004Z,3.70
2019-02-17T11:57:54.770Z,3.52
2019-02-17T12:01:00.536Z,3.70
2019-02-17T12:04:06.292Z,3.90
2019-02-17T12:07:12.036Z,3.30
2019-02-17T12:10:17.807Z,3.58
2019-02-17T12:13:23.556Z,3.12
2019-02-17T12:16:36.705Z,2.98
2019-02-17T12:19:36.916Z,3.30
2019-02-17T12:22:48.196Z,3.30
2019-02-17T12:26:15.600Z,3.20
2019-02-17T12:29:26.132Z,3.30
2019-02-17T12:32:31.763Z,3.27
2019-02-17T12:35:37.532Z,3.02
2019-02-17T12:38:43.284Z,3.17
2019-02-17T12:41:50.060Z,3.33
2019-02-17T12:44:57.179Z,3.20
2019-02-17T12:48:03.111Z,2.95
2019-02-17T12:51:08.873Z,3.20
2019-02-17T12:54:14.555Z,2.67
2019-02-17T12:57:20.376Z,3.15
2019-02-17T13:00:26.138Z,2.90
2019-02-17T13:03:31.891Z,2.85
2019-02-17T13:06:37.527Z,3.15
2019-02-17T13:09:43.331Z,3.12
2019-02-17T13:12:49.153Z,3.00
2019-02-17T13:15:54.907Z,2.75
2019-02-17T13:19:00.551Z,3.30
2019-02-17T13:22:06.319Z,2.90
2019-02-17T13:25:12.521Z,3.02
2019-02-17T13:28:18.445Z,2.72
2019-02-17T13:31:24.198Z,2.83
2019-02-17T13:34:31.699Z,3.22
2019-02-17T13:37:37.344Z,2.77
2019-02-17T13:40:43.239Z,2.98
2019-02-17T13:43:49.159Z,2.87
2019-02-17T13:46:54.919Z,2.87
2019-02-17T13:50:00.608Z,2.92
2019-02-17T13:53:11.855Z,2.92
2019-02-17T13:56:14.063Z,2.80
2019-02-17T13:59:19.881Z,2.83
2019-02-17T14:02:25.668Z,2.52
2019-02-17T14:05:31.558Z,2.77
2019-02-17T14:08:37.377Z,2.77
2019-02-17T14:11:43.127Z,2.62
2019-02-17T14:14:48.888Z,2.90
2019-02-17T14:17:54.855Z,2.72
2019-02-17T14:21:00.747Z,2.75
2019-02-17T14:24:07.488Z,2.52
2019-02-17T14:27:13.348Z,3.02
2019-02-17T14:30:19.543Z,2.80
2019-02-17T14:33:25.467Z,2.50
2019-02-17T14:36:31.256Z,2.70
2019-02-17T14:39:36.976Z,2.80
2019-02-17T14:42:42.948Z,2.75
2019-02-17T14:45:48.730Z,2.95
2019-02-17T14:48:54.612Z,2.83
2019-02-17T14:52:00.453Z,2.47
2019-02-17T14:55:06.269Z,2.60
2019-02-17T14:58:12.024Z,3.00
2019-02-17T15:01:17.814Z,2.55
2019-02-17T15:04:23.636Z,2.45
2019-02-17T15:07:29.323Z,2.70
2019-02-17T15:10:35.226Z,2.70
2019-02-17T15:13:41.111Z,2.60
2019-02-17T15:16:47.004Z,2.67
2019-02-17T15:19:52.718Z,2.40
2019-02-17T15:22:58.621Z,2.65
2019-02-17T15:26:04.578Z,2.87
2019-02-17T15:29:11.315Z,2.60
2019-02-17T15:32:17.008Z,2.50
2019-02-17T15:35:22.824Z,2.40
2019-02-17T15:38:29.711Z,2.50
2019-02-17T15:41:35.577Z,2.62
2019-02-17T15:44:41.368Z,2.60
2019-02-17T15:47:47.220Z,2.67
2019-02-17T15:50:53.036Z,2.85
2019-02-17T15:53:58.689Z,2.27
2019-02-17T15:57:04.452Z,2.65
2019-02-17T16:00:12.656Z,2.52
2019-02-17T16:03:18.420Z,2.50
2019-02-17T16:06:24.323Z,2.47
2019-02-17T16:09:30.132Z,2.45
2019-02-17T16:12:35.891Z,2.77
2019-02-17T16:15:41.540Z,2.62
2019-02-17T16:18:47.288Z,3.12
2019-02-17T16:21:53.062Z,2.75
2019-02-17T16:24:58.804Z,2.65
2019-02-17T16:28:04.448Z,2.37
2019-02-17T16:31:10.095Z,2.80
2019-02-17T16:34:15.966Z,2.90
2019-02-17T16:37:21.724Z,2.77
2019-02-17T16:40:28.368Z,2.70
2019-02-17T16:43:34.151Z,3.05
2019-02-17T16:46:39.904Z,2.77
2019-02-17T16:49:45.555Z,2.58
2019-02-17T16:52:51.421Z,2.98
2019-02-17T16:55:57.176Z,3.17
2019-02-17T16:59:02.933Z,2.92
2019-02-17T17:02:09.112Z,3.12
2019-02-17T17:05:15.046Z,3.00
2019-02-17T17:08:21.940Z,3.20
2019-02-17T17:11:27.737Z,3.02
2019-02-17T17:14:33.552Z,3.22
2019-02-17T17:17:39.396Z,3.40
2019-02-17T17:20:45.153Z,3.47
2019-02-17T17:23:50.908Z,3.58
2019-02-17T17:26:56.712Z,3.47
2019-02-17T17:30:02.523Z,4.05
2019-02-17T17:33:08.228Z,3.50
2019-02-17T17:36:14.036Z,3.60
2019-02-17T17:39:20.000Z,4.10
2019-02-17T17:42:25.900Z,4.00
2019-02-17T17:45:31.712Z,3.98
2019-02-17T17:48:37.403Z,4.15
2019-02-17T17:51:43.112Z,4.20
2019-02-17T17:54:48.976Z,4.53
2019-02-17T17:57:54.831Z,4.70
2019-02-17T18:01:00.488Z,4.55
2019-02-17T18:04:06.524Z,4.92
2019-02-17T18:07:12.515Z,4.35
2019-02-17T18:10:18.685Z,4.12
2019-02-17T18:13:24.476Z,5.22
2019-02-17T18:16:30.398Z,4.25
2019-02-17T18:19:36.175Z,5.25
2019-02-17T18:22:41.997Z,5.05
2019-02-17T18:25:48.010Z,5.33
2019-02-17T18:28:53.654Z,5.50
2019-02-17T18:31:59.571Z,5.20
2019-02-17T18:35:05.943Z,6.03
2019-02-17T18:38:11.752Z,5.97
2019-02-17T18:41:17.452Z,5.87
2019-02-17T18:44:23.217Z,6.40
2019-02-17T18:47:29.120Z,6.00
2019-02-17T18:50:34.935Z,6.35
2019-02-17T18:53:40.680Z,6.50
2019-02-17T18:56:46.495Z,6.45
2019-02-17T18:59:52.395Z,6.37
2019-02-17T19:02:58.193Z,6.67
2019-02-17T19:06:03.899Z,6.65
2019-02-17T19:09:10.206Z,6.97
2019-02-17T19:12:15.919Z,6.70
2019-02-17T19:15:21.824Z,6.35
2019-02-17T19:18:27.686Z,6.50
2019-02-17T19:21:33.500Z,6.58
2019-02-17T19:24:39.288Z,7.12
2019-02-17T19:27:45.121Z,6.75
2019-02-17T19:30:50.900Z,6.65
2019-02-17T19:33:56.773Z,6.80
2019-02-17T19:37:02.738Z,6.47
2019-02-17T19:40:09.620Z,6.35
2019-02-17T19:43:15.460Z,6.92
2019-02-17T19:46:21.423Z,6.50
2019-02-17T19:49:27.389Z,6.58
2019-02-17T19:52:33.208Z,6.28
2019-02-17T19:55:38.956Z,6.33
2019-02-17T19:58:44.813Z,6.60
2019-02-17T20:01:50.624Z,6.20
2019-02-17T20:05:08.752Z,6.78
2019-02-17T20:08:14.627Z,7.10
2019-02-17T20:11:20.486Z,6.85
2019-02-17T20:14:26.519Z,6.55
2019-02-17T20:17:32.305Z,6.42
2019-02-17T20:20:38.061Z,6.75
2019-02-17T20:23:43.704Z,6.78
2019-02-17T20:26:49.352Z,6.60
2019-02-17T20:29:55.121Z,6.47
2019-02-17T20:33:01.080Z,6.53
2019-02-17T20:36:07.044Z,6.33
2019-02-17T20:39:12.888Z,7.22
2019-02-17T20:42:18.658Z,6.60
2019-02-17T20:45:24.407Z,6.60
2019-02-17T20:48:30.162Z,6.72
2019-02-17T20:51:35.904Z,6.97
2019-02-17T20:54:41.661Z,7.10
2019-02-17T20:57:47.612Z,7.20
2019-02-17T21:00:53.164Z,7.22
2019-02-17T21:03:58.941Z,6.92
2019-02-17T21:07:04.684Z,7.20
2019-02-17T21:10:10.786Z,8.00
2019-02-17T21:13:16.716Z,7.65
2019-02-17T21:16:22.560Z,7.55
2019-02-17T21:19:28.320Z,7.55
2019-02-17T21:22:33.972Z,7.47
2019-02-17T21:25:39.772Z,8.40
2019-02-17T21:28:45.595Z,7.17
2019-02-17T21:31:51.344Z,7.35
2019-02-17T21:34:57.212Z,8.55
2019-02-17T21:38:02.960Z,10.95
2019-02-17T21:41:09.556Z,7.00
2019-02-17T21:44:16.716Z,6.75
2019-02-17T21:47:23.713Z,6.92
2019-02-17T21:50:29.712Z,6.72
2019-02-17T21:53:35.624Z,7.12
2019-02-17T21:56:41.420Z,6.83
2019-02-17T21:59:47.232Z,6.75
2019-02-17T22:02:53.004Z,6.35
2019-02-17T22:10:23.750Z,6.60
2019-02-17T22:22:09.447Z,6.65
2019-02-17T22:38:32.667Z,7.10
2019-02-17T22:42:12.964Z,7.10
2019-02-17T22:45:18.889Z,7.50
2019-02-17T22:48:24.853Z,7.10
2019-02-17T22:51:30.735Z,7.67
2019-02-17T22:54:36.660Z,8.60
2019-02-17T22:57:42.630Z,7.00
2019-02-17T23:01:06.708Z,8.38
2019-02-17T23:04:14.208Z,29.90
2019-02-17T23:07:19.987Z,8.50
2019-02-17T23:10:25.816Z,8.43
2019-02-17T23:13:31.464Z,6.80
2019-02-17T23:16:37.300Z,7.50
2019-02-17T23:19:43.230Z,7.25
2019-02-17T23:22:49.080Z,7.50
2019-02-17T23:25:55.002Z,7.75
2019-02-17T23:29:00.861Z,7.17
2019-02-17T23:32:06.861Z,7.90
2019-02-17T23:35:12.879Z,7.80
2019-02-17T23:38:18.775Z,8.30
2019-02-17T23:41:24.736Z,7.97
2019-02-17T23:44:30.761Z,8.25
2019-02-17T23:47:36.656Z,8.68
2019-02-17T23:50:42.580Z,8.73
2019-02-17T23:53:48.476Z,8.55
2019-02-17T23:56:54.337Z,9.03
